createdAt,value
2022-11-15T00:01:46.688Z,101639.80
2022-11-15T00:04:55.760Z,101639.91
2022-11-15T00:08:04.999Z,101635.67
2022-11-15T00:11:15.443Z,101629.21
2022-11-15T00:14:24.689Z,101628.77
2022-11-15T00:17:33.510Z,101629.83
2022-11-15T00:20:43.953Z,101622.36
2022-11-15T00:23:52.600Z,101623.16
2022-11-15T00:27:01.542Z,101623.78
2022-11-15T00:30:13.672Z,101623.33
2022-11-15T00:33:23.358Z,101614.67
2022-11-15T00:36:34.750Z,101612.09
2022-11-15T00:39:43.551Z,101611.26
2022-11-15T00:42:52.482Z,101609.73
2022-11-15T00:46:01.601Z,101609.40
2022-11-15T00:49:10.479Z,101606.75
2022-11-15T00:52:20.394Z,101603.10
2022-11-15T00:55:29.608Z,101599.83
2022-11-15T00:58:38.564Z,101598.24
2022-11-15T01:01:47.417Z,101597.52
2022-11-15T01:04:56.280Z,101593.69
2022-11-15T01:08:05.463Z,101590.11
2022-11-15T01:11:15.632Z,101592.49
2022-11-15T01:14:25.736Z,101586.59
2022-11-15T01:17:35.675Z,101580.52
2022-11-15T01:20:45.913Z,101579.28
2022-11-15T01:23:59.038Z,101583.41
2022-11-15T01:27:07.882Z,101577.15
2022-11-15T01:30:17.648Z,101571.45
2022-11-15T01:33:27.010Z,101567.89
2022-11-15T01:36:36.056Z,101562.73
2022-11-15T01:39:45.798Z,101553.52
2022-11-15T01:42:54.827Z,101551.91
2022-11-15T01:46:08.380Z,101547.10
2022-11-15T01:49:21.417Z,101544.59
2022-11-15T01:52:33.078Z,101546.50
2022-11-15T01:55:42.200Z,101545.18
2022-11-15T01:58:52.787Z,101536.20
2022-11-15T02:02:02.244Z,101528.54
2022-11-15T02:05:11.686Z,101528.74
2022-11-15T02:08:21.886Z,101520.11
2022-11-15T02:11:32.052Z,101517.23
2022-11-15T02:14:44.355Z,101514.04
2022-11-15T02:18:12.686Z,101505.83
2022-11-15T02:21:31.374Z,101504.84
2022-11-15T02:25:12.473Z,101503.04
2022-11-15T02:28:50.577Z,101497.96
2022-11-15T02:32:05.895Z,101496.56
2022-11-15T02:35:26.615Z,101498.33
2022-11-15T02:38:49.737Z,101496.79
2022-11-15T02:42:04.817Z,101496.99
2022-11-15T02:45:33.965Z,101495.52
2022-11-15T02:48:45.781Z,101495.08
2022-11-15T02:51:56.991Z,101497.84
2022-11-15T02:55:06.429Z,101499.02
2022-11-15T02:58:30.925Z,101496.16
2022-11-15T03:01:53.371Z,101492.39
2022-11-15T03:05:11.739Z,101494.70
2022-11-15T03:08:28.512Z,101493.61
2022-11-15T03:11:42.514Z,101490.95
2022-11-15T03:14:56.873Z,101485.70
2022-11-15T03:18:12.859Z,101483.45
2022-11-15T03:21:24.257Z,101476.86
2022-11-15T03:24:36.636Z,101474.98
2022-11-15T03:27:50.811Z,101466.94
2022-11-15T03:31:22.982Z,101469.83
2022-11-15T03:34:37.333Z,101463.65
2022-11-15T03:37:52.225Z,101460.95
2022-11-15T03:41:06.436Z,101453.58
2022-11-15T03:44:23.681Z,101449.59
2022-11-15T03:47:38.562Z,101445.73
2022-11-15T03:50:48.422Z,101437.23
2022-11-15T03:53:57.500Z,101430.27
2022-11-15T03:57:06.922Z,101423.29
2022-11-15T04:00:17.994Z,101421.76
2022-11-15T04:03:27.253Z,101423.17
2022-11-15T04:06:37.341Z,101417.70
2022-11-15T04:10:05.609Z,101411.67
2022-11-15T04:13:14.368Z,101405.63
2022-11-15T04:16:23.590Z,101408.05
2022-11-15T04:19:50.255Z,101404.55
2022-11-15T04:23:18.162Z,101404.73
2022-11-15T04:26:27.239Z,101399.44
2022-11-15T04:29:38.994Z,101400.27
2022-11-15T04:32:47.920Z,101395.08
2022-11-15T04:36:13.797Z,101393.75
2022-11-15T04:39:23.200Z,101394.66
2022-11-15T04:42:32.260Z,101394.50
2022-11-15T04:45:40.998Z,101388.95
2022-11-15T04:48:53.034Z,101390.63
2022-11-15T04:52:04.814Z,101391.41
2022-11-15T04:55:14.208Z,101387.00
2022-11-15T04:58:23.248Z,101388.52
2022-11-15T05:01:32.424Z,101383.50
2022-11-15T05:04:41.740Z,101377.33
2022-11-15T05:07:50.652Z,101376.98
2022-11-15T05:10:59.378Z,101370.04
2022-11-15T05:14:08.414Z,101363.77
2022-11-15T05:17:17.545Z,101361.21
2022-11-15T05:20:26.680Z,101357.77
2022-11-15T05:23:36.028Z,101362.86
2022-11-15T05:26:44.530Z,101362.76
2022-11-15T05:29:53.581Z,101351.46
2022-11-15T05:33:03.070Z,101351.95
2022-11-15T05:36:19.638Z,101351.59
2022-11-15T05:39:29.157Z,101344.79
2022-11-15T05:42:38.697Z,101349.49
2022-11-15T05:45:47.866Z,101345.39
2022-11-15T05:48:59.529Z,101344.05
2022-11-15T05:52:11.220Z,101336.47
2022-11-15T05:55:20.517Z,101333.27
2022-11-15T05:58:30.308Z,101332.83
2022-11-15T06:01:40.740Z,101334.44
2022-11-15T06:04:50.848Z,101333.46
2022-11-15T06:08:02.632Z,101329.02
2022-11-15T06:11:12.384Z,101326.00
2022-11-15T06:14:21.384Z,101323.90
2022-11-15T06:17:31.295Z,101322.92
2022-11-15T06:20:41.129Z,101318.68
2022-11-15T06:23:50.780Z,101321.23
2022-11-15T06:27:00.008Z,101323.33
2022-11-15T06:30:11.028Z,101319.10
2022-11-15T06:33:19.373Z,101313.67
2022-11-15T06:36:28.616Z,101309.87
2022-11-15T06:39:37.807Z,101316.11
2022-11-15T06:42:48.582Z,101318.03
2022-11-15T06:45:57.577Z,101320.09
2022-11-15T06:49:09.739Z,101321.31
2022-11-15T06:52:20.113Z,101319.62
2022-11-15T06:55:28.844Z,101315.23
2022-11-15T06:58:38.071Z,101315.88
2022-11-15T07:01:46.999Z,101310.97
2022-11-15T07:04:56.100Z,101303.47
2022-11-15T07:08:06.123Z,101303.65
2022-11-15T07:11:16.041Z,101302.14
2022-11-15T07:14:25.556Z,101304.54
2022-11-15T07:17:34.206Z,101304.15
2022-11-15T07:20:43.457Z,101302.47
2022-11-15T07:23:52.807Z,101303.80
2022-11-15T07:27:02.002Z,101302.34
2022-11-15T07:30:15.541Z,101302.88
2022-11-15T07:33:25.298Z,101301.91
2022-11-15T07:36:34.543Z,101305.81
2022-11-15T07:39:43.584Z,101303.11
2022-11-15T07:42:56.851Z,101304.38
2022-11-15T07:46:11.460Z,101306.04
2022-11-15T07:49:20.904Z,101309.98
2022-11-15T07:52:29.977Z,101311.33
2022-11-15T07:55:38.813Z,101304.58
2022-11-15T07:58:49.377Z,101302.82
2022-11-15T08:01:58.048Z,101301.55
2022-11-15T08:05:07.584Z,101297.61
2022-11-15T08:08:16.108Z,101293.60
2022-11-15T08:11:25.570Z,101298.15
2022-11-15T08:14:35.212Z,101298.66
2022-11-15T08:17:44.784Z,101304.40
2022-11-15T08:20:53.774Z,101301.30
2022-11-15T08:24:03.644Z,101296.67
2022-11-15T08:27:16.869Z,101298.06
2022-11-15T08:30:26.640Z,101299.27
2022-11-15T08:33:36.072Z,101298.48
2022-11-15T08:36:46.247Z,101300.98
2022-11-15T08:39:55.334Z,101298.05
2022-11-15T08:43:04.274Z,101299.48
2022-11-15T08:46:15.567Z,101299.22
2022-11-15T08:49:24.484Z,101297.31
2022-11-15T08:52:33.869Z,101296.36
2022-11-15T08:55:43.444Z,101297.33
2022-11-15T08:58:52.399Z,101297.50
2022-11-15T09:02:02.055Z,101293.74
2022-11-15T09:05:12.811Z,101293.08
2022-11-15T09:11:51.795Z,101299.43
2022-11-15T09:15:00.474Z,101297.24
2022-11-15T09:18:09.718Z,101295.33
2022-11-15T09:21:19.845Z,101296.13
2022-11-15T09:24:28.495Z,101296.32
2022-11-15T09:27:37.135Z,101301.48
2022-11-15T09:30:45.952Z,101302.19
2022-11-15T09:33:55.078Z,101301.27
2022-11-15T09:37:04.677Z,101303.60
2022-11-15T09:40:17.851Z,101302.90
2022-11-15T09:43:35.458Z,101301.79
2022-11-15T09:46:58.241Z,101300.77
2022-11-15T09:50:20.653Z,101294.79
2022-11-15T09:53:15.303Z,101295.30
2022-11-15T09:56:13.903Z,101290.94
2022-11-15T09:59:24.542Z,101292.57
2022-11-15T10:02:33.151Z,101293.09
2022-11-15T10:05:25.189Z,101288.08
2022-11-15T10:08:49.625Z,101282.52
2022-11-15T10:11:40.786Z,101276.16
2022-11-15T10:14:33.488Z,101270.45
2022-11-15T10:17:51.691Z,101264.96
2022-11-15T10:20:51.437Z,101257.68
2022-11-15T10:23:41.802Z,101252.77
2022-11-15T10:26:32.292Z,101240.98
2022-11-15T10:29:27.471Z,101237.83
2022-11-15T10:32:22.679Z,101231.42
2022-11-15T10:35:27.378Z,101230.55
2022-11-15T10:38:17.615Z,101228.27
2022-11-15T10:41:13.927Z,101224.39
2022-11-15T10:44:14.681Z,101222.44
2022-11-15T10:47:27.266Z,101212.86
2022-11-15T10:50:32.878Z,101200.27
2022-11-15T10:53:31.975Z,101189.83
2022-11-15T10:56:27.576Z,101182.45
2022-11-15T10:59:28.178Z,101179.31
2022-11-15T11:02:39.146Z,101168.81
2022-11-15T11:05:39.917Z,101158.46
2022-11-15T11:08:33.552Z,101151.42
2022-11-15T11:11:23.890Z,101150.94
2022-11-15T11:14:21.801Z,101141.10
2022-11-15T11:17:22.386Z,101134.34
2022-11-15T11:20:21.422Z,101122.83
2022-11-15T11:23:40.648Z,101117.55
2022-11-15T11:26:43.263Z,101107.33
2022-11-15T11:29:47.611Z,101096.52
2022-11-15T11:32:55.248Z,101091.05
2022-11-15T11:35:56.970Z,101086.66
2022-11-15T11:38:59.298Z,101087.16
2022-11-15T11:41:58.887Z,101083.42
2022-11-15T11:44:59.626Z,101074.99
2022-11-15T11:47:56.824Z,101068.76
2022-11-15T11:50:49.371Z,101061.13
2022-11-15T11:53:45.532Z,101059.70
2022-11-15T11:56:38.864Z,101061.23
2022-11-15T11:59:38.743Z,101056.38
2022-11-15T12:02:35.186Z,101052.73
2022-11-15T12:05:35.091Z,101048.24
2022-11-15T12:08:35.731Z,101046.61
2022-11-15T12:11:30.512Z,101043.41
2022-11-15T12:14:34.742Z,101035.05
2022-11-15T12:17:29.264Z,101030.19
2022-11-15T12:20:22.527Z,101030.35
2022-11-15T12:23:20.184Z,101024.10
2022-11-15T12:26:18.751Z,101016.06
2022-11-15T12:29:17.393Z,101011.75
2022-11-15T12:32:19.304Z,101004.06
2022-11-15T12:35:39.634Z,100998.21
2022-11-15T12:38:59.267Z,100990.93
2022-11-15T12:42:26.121Z,100987.48
2022-11-15T12:45:32.286Z,100981.81
2022-11-15T12:49:00.920Z,100976.83
2022-11-15T12:52:09.148Z,100970.52
2022-11-15T12:55:30.122Z,100966.98
2022-11-15T12:58:43.345Z,100968.58
2022-11-15T13:02:01.016Z,100964.83
2022-11-15T13:04:51.879Z,100956.82
2022-11-15T13:08:01.341Z,100949.61
2022-11-15T13:10:50.912Z,100944.15
2022-11-15T13:13:48.386Z,100943.34
2022-11-15T13:16:38.614Z,100943.66
2022-11-15T13:19:28.767Z,100937.36
2022-11-15T13:22:32.465Z,100935.79
2022-11-15T13:25:38.875Z,100931.20
2022-11-15T13:28:36.015Z,100929.09
2022-11-15T13:31:42.679Z,100927.48
2022-11-15T13:34:53.154Z,100922.58
2022-11-15T13:37:45.218Z,100919.76
2022-11-15T13:40:39.386Z,100914.16
2022-11-15T13:43:36.278Z,100911.27
2022-11-15T13:46:28.376Z,100910.94
2022-11-15T13:49:18.718Z,100911.46
2022-11-15T13:52:10.719Z,100912.45
2022-11-15T13:55:04.752Z,100905.05
2022-11-15T13:57:58.642Z,100902.34
2022-11-15T14:00:49.304Z,100899.41
2022-11-15T14:03:52.043Z,100905.63
2022-11-15T14:06:49.647Z,100904.48
2022-11-15T14:09:42.231Z,100899.86
2022-11-15T14:12:34.880Z,100897.63
2022-11-15T14:15:32.974Z,100898.41
2022-11-15T14:18:43.800Z,100896.55
2022-11-15T14:21:34.691Z,100889.64
2022-11-15T14:24:32.293Z,100877.69
2022-11-15T14:27:28.023Z,100877.16
2022-11-15T14:30:19.465Z,100869.84
2022-11-15T14:33:23.470Z,100867.70
2022-11-15T14:36:18.723Z,100862.73
2022-11-15T14:39:09.433Z,100864.63
2022-11-15T14:41:59.606Z,100863.52
2022-11-15T14:44:49.751Z,100862.06
2022-11-15T14:47:39.943Z,100857.83
2022-11-15T14:50:30.189Z,100852.67
2022-11-15T14:53:21.771Z,100852.33
2022-11-15T14:56:12.718Z,100850.75
2022-11-15T14:59:02.797Z,100840.05
2022-11-15T15:01:52.648Z,100834.02
2022-11-15T15:04:42.795Z,100832.08
2022-11-15T15:07:33.504Z,100831.66
2022-11-15T15:10:39.632Z,100833.60
2022-11-15T15:13:31.418Z,100835.97
2022-11-15T15:16:21.776Z,100832.73
2022-11-15T15:19:11.991Z,100832.70
2022-11-15T15:22:02.803Z,100833.04
2022-11-15T15:24:53.402Z,100831.28
2022-11-15T15:27:43.857Z,100829.48
2022-11-15T15:30:34.659Z,100828.83
2022-11-15T15:33:25.079Z,100827.09
2022-11-15T15:36:19.377Z,100826.30
2022-11-15T15:39:12.786Z,100824.86
2022-11-15T15:42:02.299Z,100818.84
2022-11-15T15:44:53.310Z,100815.78
2022-11-15T15:47:43.264Z,100814.23
2022-11-15T15:50:36.030Z,100811.46
2022-11-15T15:53:26.274Z,100807.09
2022-11-15T15:56:16.609Z,100801.73
2022-11-15T15:59:06.849Z,100802.99
2022-11-15T16:01:56.917Z,100801.48
2022-11-15T16:04:47.004Z,100797.04
2022-11-15T16:07:37.517Z,100791.17
2022-11-15T16:10:29.937Z,100788.67
2022-11-15T16:13:19.773Z,100787.14
2022-11-15T16:16:15.532Z,100783.67
2022-11-15T16:19:05.704Z,100779.09
2022-11-15T16:21:56.028Z,100780.88
2022-11-15T16:24:46.422Z,100781.09
2022-11-15T16:27:38.337Z,100778.20
2022-11-15T16:30:28.244Z,100778.09
2022-11-15T16:33:21.284Z,100775.92
2022-11-15T16:36:25.670Z,100769.73
2022-11-15T16:39:19.573Z,100773.25
2022-11-15T16:42:09.714Z,100768.63
2022-11-15T16:45:00.068Z,100763.11
2022-11-15T16:47:49.887Z,100761.98
2022-11-15T16:50:43.393Z,100760.45
2022-11-15T16:53:33.404Z,100756.00
2022-11-15T16:56:27.698Z,100752.44
2022-11-15T16:59:21.067Z,100756.99
2022-11-15T17:02:15.154Z,100756.85
2022-11-15T17:05:09.593Z,100754.56
2022-11-15T17:08:01.782Z,100755.26
2022-11-15T17:10:51.544Z,100756.66
2022-11-15T17:13:41.566Z,100755.25
2022-11-15T17:16:31.399Z,100760.61
2022-11-15T17:19:22.785Z,100761.11
2022-11-15T17:22:12.501Z,100757.84
2022-11-15T17:25:02.483Z,100758.77
2022-11-15T17:27:52.203Z,100761.71
2022-11-15T17:30:44.475Z,100765.09
2022-11-15T17:33:34.588Z,100769.17
2022-11-15T17:36:25.517Z,100770.71
2022-11-15T17:39:16.403Z,100767.85
2022-11-15T17:42:06.397Z,100763.08
2022-11-15T17:44:56.569Z,100765.34
2022-11-15T17:47:47.041Z,100767.51
2022-11-15T17:50:37.211Z,100765.80
2022-11-15T17:53:28.060Z,100764.48
2022-11-15T17:56:19.686Z,100766.64
2022-11-15T17:59:14.721Z,100770.54
2022-11-15T18:02:06.785Z,100766.19
2022-11-15T18:04:57.286Z,100766.55
2022-11-15T18:07:47.530Z,100764.91
2022-11-15T18:10:37.810Z,100764.09
2022-11-15T18:13:28.169Z,100760.73
2022-11-15T18:16:20.881Z,100762.48
2022-11-15T18:19:14.077Z,100757.39
2022-11-15T18:22:05.758Z,100749.55
2022-11-15T18:24:55.903Z,100748.33
2022-11-15T18:27:46.071Z,100751.48
2022-11-15T18:30:36.194Z,100753.28
2022-11-15T18:33:26.529Z,100755.10
2022-11-15T18:36:17.742Z,100752.25
2022-11-15T18:39:07.699Z,100740.63
2022-11-15T18:41:57.460Z,100744.41
2022-11-15T18:44:47.239Z,100740.73
2022-11-15T18:47:37.739Z,100730.89
2022-11-15T18:50:27.636Z,100720.35
2022-11-15T18:53:18.809Z,100712.39
2022-11-15T18:56:11.365Z,100710.90
2022-11-15T18:59:03.252Z,100700.42
2022-11-15T19:01:53.606Z,100698.28
2022-11-15T19:04:43.759Z,100696.15
2022-11-15T19:07:34.044Z,100703.91
2022-11-15T19:10:24.279Z,100704.58
2022-11-15T19:13:14.473Z,100700.11
2022-11-15T19:16:05.822Z,100694.23
2022-11-15T19:18:58.462Z,100691.80
2022-11-15T19:21:48.335Z,100688.05
2022-11-15T19:24:38.008Z,100685.02
2022-11-15T19:27:27.760Z,100680.05
2022-11-15T19:30:19.430Z,100673.17
2022-11-15T19:33:09.321Z,100672.72
2022-11-15T19:36:05.209Z,100670.99
2022-11-15T19:38:56.604Z,100667.48
2022-11-15T19:41:48.091Z,100666.88
2022-11-15T19:44:38.843Z,100665.44
2022-11-15T19:47:29.239Z,100664.55
2022-11-15T19:50:20.365Z,100664.38
2022-11-15T19:53:10.328Z,100669.48
2022-11-15T19:56:03.513Z,100673.55
2022-11-15T19:58:55.134Z,100672.67
2022-11-15T20:01:45.496Z,100668.94
2022-11-15T20:04:35.867Z,100664.30
2022-11-15T20:07:26.413Z,100663.60
2022-11-15T20:10:19.699Z,100663.67
2022-11-15T20:13:11.068Z,100662.61
2022-11-15T20:16:02.468Z,100661.95
2022-11-15T20:18:53.956Z,100663.95
2022-11-15T20:21:44.360Z,100663.05
2022-11-15T20:24:35.383Z,100663.34
2022-11-15T20:27:25.249Z,100667.23
2022-11-15T20:30:16.142Z,100665.52
2022-11-15T20:33:05.820Z,100669.47
2022-11-15T20:35:56.056Z,100674.69
2022-11-15T20:38:47.219Z,100673.88
2022-11-15T20:41:36.656Z,100671.98
2022-11-15T20:44:26.504Z,100667.03
2022-11-15T20:47:15.943Z,100662.90
2022-11-15T20:50:27.668Z,100656.64
2022-11-15T20:53:16.727Z,100657.45
2022-11-15T20:56:13.041Z,100671.33
2022-11-15T20:59:02.845Z,100669.22
2022-11-15T21:01:53.037Z,100649.29
2022-11-15T21:04:42.495Z,100640.68
2022-11-15T21:07:32.455Z,100637.20
2022-11-15T21:10:40.730Z,100634.02
2022-11-15T21:13:30.547Z,100635.05
2022-11-15T21:16:20.095Z,100635.05
2022-11-15T21:19:10.548Z,100635.00
2022-11-15T21:22:00.921Z,100638.72
2022-11-15T21:24:51.161Z,100636.04
2022-11-15T21:27:41.208Z,100633.95
2022-11-15T21:30:31.476Z,100636.30
2022-11-15T21:33:23.896Z,100631.70
2022-11-15T21:36:14.556Z,100624.20
2022-11-15T21:39:04.898Z,100616.86
2022-11-15T21:41:56.403Z,100622.30
2022-11-15T21:44:47.820Z,100618.13
2022-11-15T21:47:40.864Z,100614.91
2022-11-15T21:50:34.963Z,100615.80
2022-11-15T21:53:25.215Z,100613.81
2022-11-15T21:56:15.088Z,100608.77
2022-11-15T21:59:05.287Z,100606.83
2022-11-15T22:02:08.816Z,100599.48
2022-11-15T22:04:58.689Z,100584.23
2022-11-15T22:07:48.859Z,100581.78
2022-11-15T22:10:38.867Z,100582.21
2022-11-15T22:13:30.089Z,100588.83
2022-11-15T22:16:20.430Z,100590.81
2022-11-15T22:19:10.629Z,100587.77
2022-11-15T22:22:00.271Z,100577.95
2022-11-15T22:24:50.333Z,100566.22
2022-11-15T22:27:40.088Z,100558.03
2022-11-15T22:30:29.751Z,100555.88
2022-11-15T22:33:21.692Z,100553.20
2022-11-15T22:36:14.246Z,100545.01
2022-11-15T22:39:03.764Z,100539.38
2022-11-15T22:41:54.485Z,100541.69
2022-11-15T22:44:43.933Z,100537.00
2022-11-15T22:47:34.024Z,100535.83
2022-11-15T22:50:24.599Z,100542.44
2022-11-15T22:53:14.895Z,100536.73
2022-11-15T22:56:06.746Z,100530.55
2022-11-15T22:58:56.643Z,100526.80
2022-11-15T23:01:46.829Z,100515.02
2022-11-15T23:04:38.520Z,100511.29
2022-11-15T23:07:28.821Z,100505.04
2022-11-15T23:10:36.892Z,100497.52
2022-11-15T23:13:29.380Z,100492.92
2022-11-15T23:16:33.268Z,100489.42
2022-11-15T23:19:23.316Z,100483.94
2022-11-15T23:22:30.631Z,100476.40
2022-11-15T23:25:20.474Z,100471.75
2022-11-15T23:28:10.310Z,100471.36
2022-11-15T23:31:24.507Z,100472.66
2022-11-15T23:34:18.511Z,100475.25
2022-11-15T23:37:13.031Z,100476.98
2022-11-15T23:40:03.553Z,100480.96
2022-11-15T23:42:53.980Z,100477.67
2022-11-15T23:45:44.347Z,100469.77
2022-11-15T23:48:34.823Z,100470.73
2022-11-15T23:51:25.309Z,100477.86
2022-11-15T23:54:15.810Z,100484.65
2022-11-15T23:57:07.251Z,100478.83
